Time,TemperatureF,DewpointF,PressureIn,WindDirection,WindDirectionDegrees,WindSpeedMPH,WindSpeedGustMPH,Humidity,HourlyPrecipIn,Conditions,Clouds,dailyrainin,SolarRadiationWatts/m^2,SoftwareType,DateUTC
2013-10-18 00:01:00,66.0,64.0,29.89,SW,233,0.0,3.0,94,0.00,,,0.00,0,weatherlink.com 1.10,2013-10-18 04:01:00,
2013-10-18 00:16:00,65.9,64.0,29.90,SW,233,0.0,2.0,94,0.00,,,0.00,0,weatherlink.com 1.10,2013-10-18 04:16:00,
2013-10-18 00:31:00,66.0,64.0,29.89,WSW,252,0.0,4.0,94,0.00,,,0.00,0,weatherlink.com 1.10,2013-10-18 04:31:00,
2013-10-18 00:46:00,66.0,64.0,29.89,WSW,241,1.0,2.0,94,0.00,,,0.00,0,weatherlink.com 1.10,2013-10-18 04:46:00,
2013-10-18 01:01:00,65.7,64.0,29.89,WSW,241,0.0,1.0,94,0.00,,,0.00,0,weatherlink.com 1.10,2013-10-18 05:01:00,
2013-10-18 01:16:00,65.1,63.0,29.90,WSW,241,0.0,0.0,94,0.00,,,0.00,0,weatherlink.com 1.10,2013-10-18 05:16:00,
2013-10-18 01:31:00,64.7,63.0,29.90,WSW,241,0.0,0.0,95,0.00,,,0.00,0,weatherlink.com 1.10,2013-10-18 05:31:00,
2013-10-18 01:46:00,64.5,63.0,29.89,WSW,241,0.0,0.0,95,0.00,,,0.00,0,weatherlink.com 1.10,2013-10-18 05:46:00,
2013-10-18 02:01:00,64.1,63.0,29.90,WSW,241,0.0,0.0,95,0.00,,,0.00,0,weatherlink.com 1.10,2013-10-18 06:01:00,
2013-10-18 02:16:00,64.0,63.0,29.90,WSW,241,0.0,0.0,96,0.00,,,0.00,0,weatherlink.com 1.10,2013-10-18 06:16:00,
2013-10-18 02:31:00,63.7,63.0,29.90,WSW,241,0.0,0.0,96,0.00,,,0.00,0,weatherlink.com 1.10,2013-10-18 06:31:00,
2013-10-18 02:46:00,63.5,62.0,29.90,WSW,241,0.0,0.0,96,0.00,,,0.00,0,weatherlink.com 1.10,2013-10-18 06:46:00,
2013-10-18 03:01:00,63.4,62.0,29.90,WSW,241,0.0,0.0,96,0.00,,,0.00,0,weatherlink.com 1.10,2013-10-18 07:01:00,
2013-10-18 03:16:00,63.2,62.0,29.90,WSW,241,0.0,0.0,96,0.00,,,0.00,0,weatherlink.com 1.10,2013-10-18 07:16:00,
2013-10-18 03:31:00,62.9,62.0,29.90,WSW,241,0.0,0.0,96,0.00,,,0.00,0,weatherlink.com 1.10,2013-10-18 07:31:00,
2013-10-18 03:46:00,62.8,62.0,29.90,WSW,241,0.0,0.0,96,0.00,,,0.00,0,weatherlink.com 1.10,2013-10-18 07:46:00,
2013-10-18 04:01:00,62.7,62.0,29.91,WSW,241,0.0,0.0,97,0.00,,,0.00,0,weatherlink.com 1.10,2013-10-18 08:01:00,
2013-10-18 04:16:00,62.9,62.0,29.91,SE,138,0.0,1.0,97,0.00,,,0.00,0,weatherlink.com 1.10,2013-10-18 08:16:00,
2013-10-18 04:31:00,63.2,62.0,29.92,ESE,117,1.0,4.0,97,0.00,,,0.00,0,weatherlink.com 1.10,2013-10-18 08:31:00,
2013-10-18 04:46:00,62.8,61.0,29.92,West,263,0.0,3.0,95,0.00,,,0.00,0,weatherlink.com 1.10,2013-10-18 08:46:00,
2013-10-18 05:01:00,62.0,59.0,29.94,West,263,0.0,0.0,91,0.00,,,0.00,0,weatherlink.com 1.10,2013-10-18 09:01:00,
2013-10-18 05:16:00,61.7,59.0,29.94,West,260,0.0,1.0,91,0.00,,,0.00,0,weatherlink.com 1.10,2013-10-18 09:16:00,
2013-10-18 05:31:00,60.8,58.0,29.95,West,260,0.0,0.0,89,0.00,,,0.00,0,weatherlink.com 1.10,2013-10-18 09:31:00,
2013-10-18 05:47:00,60.2,57.0,29.96,West,260,0.0,1.0,89,0.00,,,0.00,0,weatherlink.com 1.10,2013-10-18 09:47:00,
2013-10-18 06:02:00,59.9,57.0,29.96,West,260,0.0,0.0,89,0.00,,,0.00,0,weatherlink.com 1.10,2013-10-18 10:02:00,
2013-10-18 06:17:00,59.2,57.0,29.96,West,260,0.0,0.0,91,0.00,,,0.00,0,weatherlink.com 1.10,2013-10-18 10:17:00,
2013-10-18 06:32:00,58.8,56.0,29.97,ESE,113,0.0,0.0,90,0.00,,,0.00,0,weatherlink.com 1.10,2013-10-18 10:32:00,
2013-10-18 06:47:00,58.5,56.0,29.97,ENE,78,0.0,1.0,90,0.00,,,0.00,0,weatherlink.com 1.10,2013-10-18 10:47:00,
2013-10-18 07:02:00,58.5,55.0,29.98,East,88,0.0,1.0,89,0.00,,,0.00,0,weatherlink.com 1.10,2013-10-18 11:02:00,
2013-10-18 07:17:00,58.4,54.0,29.99,ENE,68,0.0,2.0,85,0.00,,,0.00,0,weatherlink.com 1.10,2013-10-18 11:17:00,
2013-10-18 07:32:00,57.9,54.0,29.99,NE,51,0.0,2.0,86,0.00,,,0.00,7,weatherlink.com 1.10,2013-10-18 11:32:00,
2013-10-18 07:47:00,57.6,53.0,30.00,East,88,0.0,1.0,84,0.00,,,0.00,18,weatherlink.com 1.10,2013-10-18 11:47:00,
2013-10-18 08:02:00,57.3,53.0,30.00,SE,126,0.0,1.0,85,0.00,,,0.00,18,weatherlink.com 1.10,2013-10-18 12:02:00,
2013-10-18 08:17:00,56.9,52.0,30.01,ESE,105,1.0,3.0,82,0.00,,,0.00,30,weatherlink.com 1.10,2013-10-18 12:17:00,
2013-10-18 08:32:00,57.6,51.0,30.02,ESE,121,3.0,3.0,79,0.00,,,0.00,100,weatherlink.com 1.10,2013-10-18 12:32:00,
2013-10-18 08:47:00,59.3,52.0,30.03,ESE,114,0.0,2.0,76,0.00,,,0.00,232,weatherlink.com 1.10,2013-10-18 12:47:00,
2013-10-18 09:02:00,60.1,51.0,30.03,NE,38,2.0,5.0,72,0.00,,,0.00,239,weatherlink.com 1.10,2013-10-18 13:02:00,
2013-10-18 09:17:00,60.7,51.0,30.03,NNW,344,2.0,4.0,70,0.00,,,0.00,142,weatherlink.com 1.10,2013-10-18 13:17:00,
2013-10-18 09:32:00,59.8,50.0,30.04,ESE,119,1.0,7.0,71,0.00,,,0.00,139,weatherlink.com 1.10,2013-10-18 13:32:00,
2013-10-18 09:47:00,59.6,50.0,30.04,ESE,123,2.0,9.0,70,0.00,,,0.00,135,weatherlink.com 1.10,2013-10-18 13:47:00,
2013-10-18 10:02:00,59.9,49.0,30.04,SSW,213,2.0,5.0,67,0.00,,,0.00,151,weatherlink.com 1.10,2013-10-18 14:02:00,
2013-10-18 10:17:00,60.1,49.0,30.04,East,82,1.0,4.0,68,0.00,,,0.00,142,weatherlink.com 1.10,2013-10-18 14:17:00,
2013-10-18 10:32:00,60.3,49.0,30.05,ESE,123,0.0,4.0,67,0.00,,,0.00,172,weatherlink.com 1.10,2013-10-18 14:32:00,
2013-10-18 10:47:00,60.9,50.0,30.05,West,281,1.0,3.0,68,0.00,,,0.00,248,weatherlink.com 1.10,2013-10-18 14:47:00,
2013-10-18 11:02:00,61.3,49.0,30.05,ENE,57,1.0,3.0,64,0.00,,,0.00,220,weatherlink.com 1.10,2013-10-18 15:02:00,
2013-10-18 11:17:00,61.5,49.0,30.05,NE,47,2.0,5.0,64,0.00,,,0.00,230,weatherlink.com 1.10,2013-10-18 15:17:00,
2013-10-18 11:32:00,62.0,48.0,30.05,NE,53,0.0,5.0,61,0.00,,,0.00,186,weatherlink.com 1.10,2013-10-18 15:32:00,
2013-10-18 11:47:00,62.4,49.0,30.05,East,86,0.0,3.0,63,0.00,,,0.00,288,weatherlink.com 1.10,2013-10-18 15:47:00,
2013-10-18 12:02:00,63.3,49.0,30.05,North,360,1.0,6.0,60,0.00,,,0.00,257,weatherlink.com 1.10,2013-10-18 16:02:00,
2013-10-18 12:17:00,63.2,50.0,30.05,East,98,0.0,9.0,63,0.00,,,0.00,227,weatherlink.com 1.10,2013-10-18 16:17:00,
2013-10-18 12:32:00,63.3,50.0,30.05,ENE,78,0.0,3.0,63,0.00,,,0.00,156,weatherlink.com 1.10,2013-10-18 16:32:00,
2013-10-18 12:47:00,63.4,51.0,30.04,South,188,0.0,3.0,65,0.00,,,0.00,218,weatherlink.com 1.10,2013-10-18 16:47:00,
2013-10-18 13:02:00,64.1,49.0,30.03,ENE,62,2.0,4.0,58,0.00,,,0.00,195,weatherlink.com 1.10,2013-10-18 17:02:00,
2013-10-18 13:18:00,64.9,50.0,30.03,SE,126,1.0,4.0,58,0.00,,,0.00,336,weatherlink.com 1.10,2013-10-18 17:18:00,
2013-10-18 13:33:00,65.8,50.0,30.02,East,80,0.0,3.0,58,0.00,,,0.00,360,weatherlink.com 1.10,2013-10-18 17:33:00,
2013-10-18 13:48:00,65.7,49.0,30.01,SW,223,0.0,3.0,56,0.00,,,0.00,302,weatherlink.com 1.10,2013-10-18 17:48:00,
2013-10-18 14:03:00,65.8,50.0,30.01,NE,51,0.0,3.0,57,0.00,,,0.00,388,weatherlink.com 1.10,2013-10-18 18:03:00,
2013-10-18 14:18:00,66.5,50.0,30.00,South,188,0.0,5.0,56,0.00,,,0.00,631,weatherlink.com 1.10,2013-10-18 18:18:00,
2013-10-18 14:33:00,66.7,50.0,30.00,ESE,115,2.0,4.0,56,0.00,,,0.00,334,weatherlink.com 1.10,2013-10-18 18:33:00,
2013-10-18 14:48:00,67.0,51.0,30.00,NE,42,0.0,3.0,56,0.00,,,0.00,287,weatherlink.com 1.10,2013-10-18 18:48:00,
2013-10-18 15:03:00,67.3,51.0,29.99,NE,53,0.0,1.0,56,0.00,,,0.00,267,weatherlink.com 1.10,2013-10-18 19:03:00,
2013-10-18 15:18:00,67.2,52.0,29.99,SSE,154,0.0,3.0,58,0.00,,,0.00,207,weatherlink.com 1.10,2013-10-18 19:18:00,
2013-10-18 15:33:00,67.3,51.0,29.99,ENE,59,0.0,2.0,57,0.00,,,0.00,213,weatherlink.com 1.10,2013-10-18 19:33:00,
2013-10-18 15:48:00,67.3,52.0,29.99,SE,132,2.0,4.0,58,0.00,,,0.00,172,weatherlink.com 1.10,2013-10-18 19:48:00,
2013-10-18 16:03:00,67.0,52.0,29.99,ESE,107,1.0,2.0,59,0.00,,,0.00,153,weatherlink.com 1.10,2013-10-18 20:03:00,
2013-10-18 16:18:00,67.2,53.0,29.99,ESE,107,0.0,1.0,60,0.00,,,0.00,183,weatherlink.com 1.10,2013-10-18 20:18:00,
2013-10-18 16:33:00,67.0,53.0,29.98,East,90,0.0,1.0,61,0.00,,,0.00,185,weatherlink.com 1.10,2013-10-18 20:33:00,
2013-10-18 16:48:00,66.9,53.0,29.98,East,90,0.0,1.0,61,0.00,,,0.00,113,weatherlink.com 1.10,2013-10-18 20:48:00,
2013-10-18 17:03:00,66.8,54.0,29.98,East,90,0.0,1.0,64,0.00,,,0.00,90,weatherlink.com 1.10,2013-10-18 21:03:00,
2013-10-18 17:18:00,66.6,55.0,29.98,East,90,0.0,1.0,67,0.00,,,0.00,53,weatherlink.com 1.10,2013-10-18 21:18:00,
2013-10-18 17:34:00,65.9,56.0,29.98,East,90,0.0,0.0,71,0.00,,,0.00,102,weatherlink.com 1.10,2013-10-18 21:34:00,
2013-10-18 17:48:00,65.6,56.0,29.98,East,90,0.0,0.0,71,0.00,,,0.00,53,weatherlink.com 1.10,2013-10-18 21:48:00,
2013-10-18 18:03:00,64.9,57.0,29.98,East,90,0.0,0.0,76,0.00,,,0.00,30,weatherlink.com 1.10,2013-10-18 22:03:00,
2013-10-18 18:18:00,64.0,57.0,29.98,East,90,0.0,0.0,79,0.00,,,0.00,25,weatherlink.com 1.10,2013-10-18 22:18:00,
2013-10-18 18:33:00,63.3,58.0,29.98,East,90,0.0,0.0,83,0.00,,,0.00,0,weatherlink.com 1.10,2013-10-18 22:33:00,
2013-10-18 18:48:00,62.6,57.0,29.99,East,90,0.0,0.0,82,0.00,,,0.00,0,weatherlink.com 1.10,2013-10-18 22:48:00,
2013-10-18 19:03:00,62.2,57.0,29.99,East,90,0.0,0.0,84,0.00,,,0.00,0,weatherlink.com 1.10,2013-10-18 23:03:00,
2013-10-18 19:18:00,61.8,58.0,29.99,East,90,0.0,0.0,86,0.00,,,0.00,0,weatherlink.com 1.10,2013-10-18 23:18:00,
2013-10-18 19:33:00,61.6,57.0,30.00,East,90,0.0,0.0,85,0.00,,,0.00,0,weatherlink.com 1.10,2013-10-18 23:33:00,
2013-10-18 19:48:00,61.5,58.0,30.00,East,90,0.0,0.0,87,0.00,,,0.00,0,weatherlink.com 1.10,2013-10-18 23:48:00,
2013-10-18 20:18:00,61.6,56.0,30.00,East,90,0.0,0.0,82,0.00,,,0.00,0,weatherlink.com 1.10,2013-10-19 00:18:00,
2013-10-18 20:33:00,61.5,57.0,30.00,East,90,0.0,0.0,84,0.00,,,0.00,0,weatherlink.com 1.10,2013-10-19 00:33:00,
2013-10-18 20:48:00,61.4,56.0,30.00,East,90,0.0,0.0,81,0.00,,,0.00,0,weatherlink.com 1.10,2013-10-19 00:48:00,
2013-10-18 21:03:00,61.4,56.0,30.00,East,90,0.0,0.0,83,0.00,,,0.00,0,weatherlink.com 1.10,2013-10-19 01:03:00,
2013-10-18 21:18:00,61.4,56.0,30.01,East,90,0.0,0.0,83,0.00,,,0.00,0,weatherlink.com 1.10,2013-10-19 01:18:00,
2013-10-18 21:33:00,61.5,57.0,30.01,East,90,0.0,0.0,85,0.00,,,0.00,0,weatherlink.com 1.10,2013-10-19 01:33:00,
2013-10-18 21:48:00,61.3,57.0,30.00,East,90,0.0,0.0,85,0.00,,,0.00,0,weatherlink.com 1.10,2013-10-19 01:48:00,
2013-10-18 22:03:00,61.3,57.0,30.01,East,90,0.0,0.0,86,0.00,,,0.00,0,weatherlink.com 1.10,2013-10-19 02:03:00,
2013-10-18 22:18:00,61.1,57.0,30.01,East,90,0.0,0.0,87,0.00,,,0.00,0,weatherlink.com 1.10,2013-10-19 02:18:00,
2013-10-18 22:33:00,61.1,57.0,30.01,East,90,0.0,0.0,87,0.00,,,0.00,0,weatherlink.com 1.10,2013-10-19 02:33:00,
2013-10-18 22:48:00,61.1,58.0,30.01,East,90,0.0,0.0,88,0.00,,,0.00,0,weatherlink.com 1.10,2013-10-19 02:48:00,
2013-10-18 23:03:00,61.0,58.0,30.00,East,90,0.0,0.0,89,0.00,,,0.00,0,weatherlink.com 1.10,2013-10-19 03:03:00,
2013-10-18 23:18:00,60.8,58.0,29.99,East,90,0.0,0.0,89,0.00,,,0.00,0,weatherlink.com 1.10,2013-10-19 03:18:00,
2013-10-18 23:33:00,60.7,57.0,30.00,East,90,0.0,0.0,86,0.00,,,0.00,0,weatherlink.com 1.10,2013-10-19 03:33:00,
2013-10-18 23:48:00,61.0,57.0,30.00,East,90,0.0,0.0,86,0.00,,,0.00,0,weatherlink.com 1.10,2013-10-19 03:48:00,